sensor_id;sensor_type;location;lat;lon;timestamp;P1;durP1;ratioP1;P2;durP2;ratioP2
12312;SDS011;6220;53.580;9.758;2024-02-15T00:01:58;16.20;;;14.40;;
12312;SDS011;6220;53.580;9.758;2024-02-15T00:04:23;16.93;;;14.50;;
12312;SDS011;6220;53.580;9.758;2024-02-15T00:06:49;18.57;;;14.60;;
12312;SDS011;6220;53.580;9.758;2024-02-15T00:09:16;18.60;;;15.00;;
12312;SDS011;6220;53.580;9.758;2024-02-15T00:11:41;19.13;;;16.87;;
12312;SDS011;6220;53.580;9.758;2024-02-15T00:14:06;22.67;;;18.43;;
12312;SDS011;6220;53.580;9.758;2024-02-15T00:16:33;21.57;;;17.43;;
12312;SDS011;6220;53.580;9.758;2024-02-15T00:18:59;20.20;;;16.17;;
12312;SDS011;6220;53.580;9.758;2024-02-15T00:21:25;19.83;;;16.47;;
12312;SDS011;6220;53.580;9.758;2024-02-15T00:23:50;18.83;;;15.80;;
12312;SDS011;6220;53.580;9.758;2024-02-15T00:26:15;18.40;;;15.77;;
12312;SDS011;6220;53.580;9.758;2024-02-15T00:28:42;19.00;;;16.97;;
12312;SDS011;6220;53.580;9.758;2024-02-15T00:31:10;20.63;;;17.67;;
12312;SDS011;6220;53.580;9.758;2024-02-15T00:33:35;20.93;;;17.37;;
12312;SDS011;6220;53.580;9.758;2024-02-15T00:36:02;21.20;;;17.23;;
12312;SDS011;6220;53.580;9.758;2024-02-15T00:38:28;19.73;;;17.63;;
12312;SDS011;6220;53.580;9.758;2024-02-15T00:40:54;21.63;;;18.50;;
12312;SDS011;6220;53.580;9.758;2024-02-15T00:43:19;22.13;;;18.33;;
12312;SDS011;6220;53.580;9.758;2024-02-15T00:45:45;23.73;;;19.07;;
12312;SDS011;6220;53.580;9.758;2024-02-15T00:48:10;20.30;;;18.00;;
12312;SDS011;6220;53.580;9.758;2024-02-15T00:50:37;24.07;;;18.33;;
12312;SDS011;6220;53.580;9.758;2024-02-15T00:53:03;22.03;;;18.20;;
12312;SDS011;6220;53.580;9.758;2024-02-15T00:55:28;20.37;;;17.90;;
12312;SDS011;6220;53.580;9.758;2024-02-15T00:57:54;22.07;;;17.40;;
12312;SDS011;6220;53.580;9.758;2024-02-15T01:00:21;19.33;;;17.20;;
12312;SDS011;6220;53.580;9.758;2024-02-15T01:02:46;19.53;;;17.43;;
12312;SDS011;6220;53.580;9.758;2024-02-15T01:05:12;21.43;;;16.97;;
12312;SDS011;6220;53.580;9.758;2024-02-15T01:07:40;18.33;;;16.40;;
12312;SDS011;6220;53.580;9.758;2024-02-15T01:10:06;18.43;;;16.43;;
12312;SDS011;6220;53.580;9.758;2024-02-15T01:12:33;19.27;;;16.47;;
12312;SDS011;6220;53.580;9.758;2024-02-15T01:14:58;19.13;;;17.13;;
12312;SDS011;6220;53.580;9.758;2024-02-15T01:17:24;19.40;;;16.60;;
12312;SDS011;6220;53.580;9.758;2024-02-15T01:19:49;20.67;;;18.30;;
12312;SDS011;6220;53.580;9.758;2024-02-15T01:22:17;21.33;;;17.40;;
12312;SDS011;6220;53.580;9.758;2024-02-15T01:24:42;23.30;;;18.97;;
12312;SDS011;6220;53.580;9.758;2024-02-15T01:27:08;21.33;;;18.93;;
12312;SDS011;6220;53.580;9.758;2024-02-15T01:29:35;19.70;;;17.67;;
12312;SDS011;6220;53.580;9.758;2024-02-15T01:32:01;20.07;;;18.00;;
12312;SDS011;6220;53.580;9.758;2024-02-15T01:34:28;20.93;;;18.17;;
12312;SDS011;6220;53.580;9.758;2024-02-15T01:36:54;24.57;;;19.70;;
12312;SDS011;6220;53.580;9.758;2024-02-15T01:39:19;21.50;;;19.13;;
12312;SDS011;6220;53.580;9.758;2024-02-15T01:41:47;22.47;;;20.07;;
12312;SDS011;6220;53.580;9.758;2024-02-15T01:44:15;19.33;;;17.33;;
12312;SDS011;6220;53.580;9.758;2024-02-15T01:46:41;22.57;;;20.17;;
12312;SDS011;6220;53.580;9.758;2024-02-15T01:49:08;20.70;;;18.40;;
12312;SDS011;6220;53.580;9.758;2024-02-15T01:51:35;22.40;;;19.37;;
12312;SDS011;6220;53.580;9.758;2024-02-15T01:54:02;21.73;;;19.43;;
12312;SDS011;6220;53.580;9.758;2024-02-15T01:56:27;22.57;;;20.17;;
12312;SDS011;6220;53.580;9.758;2024-02-15T01:58:53;22.43;;;20.03;;
12312;SDS011;6220;53.580;9.758;2024-02-15T02:01:18;21.73;;;19.43;;
12312;SDS011;6220;53.580;9.758;2024-02-15T02:03:43;22.30;;;20.00;;
12312;SDS011;6220;53.580;9.758;2024-02-15T02:06:09;23.70;;;20.13;;
12312;SDS011;6220;53.580;9.758;2024-02-15T02:08:35;21.43;;;18.80;;
12312;SDS011;6220;53.580;9.758;2024-02-15T02:11:00;24.90;;;20.10;;
12312;SDS011;6220;53.580;9.758;2024-02-15T02:13:26;23.43;;;19.20;;
12312;SDS011;6220;53.580;9.758;2024-02-15T02:15:52;21.07;;;18.87;;
12312;SDS011;6220;53.580;9.758;2024-02-15T02:18:20;22.17;;;18.83;;
12312;SDS011;6220;53.580;9.758;2024-02-15T02:20:47;23.03;;;19.53;;
12312;SDS011;6220;53.580;9.758;2024-02-15T02:23:16;25.83;;;19.80;;
12312;SDS011;6220;53.580;9.758;2024-02-15T02:25:43;23.67;;;19.37;;
12312;SDS011;6220;53.580;9.758;2024-02-15T02:28:09;20.10;;;17.93;;
12312;SDS011;6220;53.580;9.758;2024-02-15T02:30:36;26.03;;;21.43;;
12312;SDS011;6220;53.580;9.758;2024-02-15T02:33:02;24.30;;;19.40;;
12312;SDS011;6220;53.580;9.758;2024-02-15T02:35:32;23.93;;;18.50;;
12312;SDS011;6220;53.580;9.758;2024-02-15T02:37:58;21.20;;;18.23;;
12312;SDS011;6220;53.580;9.758;2024-02-15T02:40:23;21.33;;;18.57;;
12312;SDS011;6220;53.580;9.758;2024-02-15T02:42:52;24.73;;;19.37;;
12312;SDS011;6220;53.580;9.758;2024-02-15T02:45:21;20.60;;;18.40;;
12312;SDS011;6220;53.580;9.758;2024-02-15T02:47:47;25.20;;;18.80;;
12312;SDS011;6220;53.580;9.758;2024-02-15T02:50:17;21.93;;;19.23;;
12312;SDS011;6220;53.580;9.758;2024-02-15T02:52:44;22.03;;;18.80;;
12312;SDS011;6220;53.580;9.758;2024-02-15T02:55:09;23.70;;;19.97;;
12312;SDS011;6220;53.580;9.758;2024-02-15T02:57:37;21.03;;;17.93;;
12312;SDS011;6220;53.580;9.758;2024-02-15T03:00:06;22.40;;;19.07;;
12312;SDS011;6220;53.580;9.758;2024-02-15T03:02:40;25.53;;;19.60;;
12312;SDS011;6220;53.580;9.758;2024-02-15T03:05:05;21.17;;;18.03;;
12312;SDS011;6220;53.580;9.758;2024-02-15T03:07:33;21.23;;;17.97;;
12312;SDS011;6220;53.580;9.758;2024-02-15T03:10:00;20.83;;;18.63;;
12312;SDS011;6220;53.580;9.758;2024-02-15T03:12:36;22.30;;;19.73;;
12312;SDS011;6220;53.580;9.758;2024-02-15T03:15:05;21.40;;;18.47;;
12312;SDS011;6220;53.580;9.758;2024-02-15T03:17:43;20.57;;;17.83;;
12312;SDS011;6220;53.580;9.758;2024-02-15T03:20:09;22.10;;;19.03;;
12312;SDS011;6220;53.580;9.758;2024-02-15T03:22:54;23.17;;;17.83;;
12312;SDS011;6220;53.580;9.758;2024-02-15T03:25:20;21.67;;;17.80;;
12312;SDS011;6220;53.580;9.758;2024-02-15T03:27:48;23.37;;;19.17;;
12312;SDS011;6220;53.580;9.758;2024-02-15T03:30:17;21.70;;;18.43;;
12312;SDS011;6220;53.580;9.758;2024-02-15T03:32:49;22.40;;;19.20;;
12312;SDS011;6220;53.580;9.758;2024-02-15T03:35:16;22.77;;;18.40;;
12312;SDS011;6220;53.580;9.758;2024-02-15T03:37:42;22.97;;;18.97;;
12312;SDS011;6220;53.580;9.758;2024-02-15T03:40:08;25.43;;;19.43;;
12312;SDS011;6220;53.580;9.758;2024-02-15T03:42:34;24.00;;;18.30;;
12312;SDS011;6220;53.580;9.758;2024-02-15T03:45:05;25.30;;;19.23;;
12312;SDS011;6220;53.580;9.758;2024-02-15T03:47:35;23.47;;;18.67;;
12312;SDS011;6220;53.580;9.758;2024-02-15T03:50:03;27.83;;;20.50;;
12312;SDS011;6220;53.580;9.758;2024-02-15T03:52:35;23.87;;;18.50;;
12312;SDS011;6220;53.580;9.758;2024-02-15T03:55:04;24.63;;;19.63;;
12312;SDS011;6220;53.580;9.758;2024-02-15T03:57:30;25.30;;;19.27;;
12312;SDS011;6220;53.580;9.758;2024-02-15T03:59:56;25.10;;;18.67;;
12312;SDS011;6220;53.580;9.758;2024-02-15T04:02:28;23.40;;;18.67;;
12312;SDS011;6220;53.580;9.758;2024-02-15T04:04:55;26.17;;;18.70;;
12312;SDS011;6220;53.580;9.758;2024-02-15T04:07:23;24.23;;;18.83;;
12312;SDS011;6220;53.580;9.758;2024-02-15T04:09:51;24.90;;;19.23;;
12312;SDS011;6220;53.580;9.758;2024-02-15T04:12:20;24.03;;;18.73;;
12312;SDS011;6220;53.580;9.758;2024-02-15T04:14:48;26.17;;;18.67;;
12312;SDS011;6220;53.580;9.758;2024-02-15T04:17:14;25.50;;;20.40;;
12312;SDS011;6220;53.580;9.758;2024-02-15T04:19:42;25.57;;;19.10;;
12312;SDS011;6220;53.580;9.758;2024-02-15T04:22:09;24.73;;;18.93;;
12312;SDS011;6220;53.580;9.758;2024-02-15T04:24:35;26.53;;;18.97;;
12312;SDS011;6220;53.580;9.758;2024-02-15T04:27:04;26.57;;;19.10;;
12312;SDS011;6220;53.580;9.758;2024-02-15T04:29:33;27.17;;;19.60;;
12312;SDS011;6220;53.580;9.758;2024-02-15T04:31:59;27.50;;;20.53;;
12312;SDS011;6220;53.580;9.758;2024-02-15T04:34:24;25.87;;;19.40;;
12312;SDS011;6220;53.580;9.758;2024-02-15T04:36:49;24.47;;;18.60;;
12312;SDS011;6220;53.580;9.758;2024-02-15T04:39:20;29.77;;;20.17;;
12312;SDS011;6220;53.580;9.758;2024-02-15T04:41:50;27.50;;;19.97;;
12312;SDS011;6220;53.580;9.758;2024-02-15T04:44:16;26.27;;;19.93;;
12312;SDS011;6220;53.580;9.758;2024-02-15T04:46:45;26.23;;;19.83;;
12312;SDS011;6220;53.580;9.758;2024-02-15T04:49:12;26.80;;;19.53;;
12312;SDS011;6220;53.580;9.758;2024-02-15T04:51:39;27.10;;;19.43;;
12312;SDS011;6220;53.580;9.758;2024-02-15T04:54:09;26.97;;;20.03;;
12312;SDS011;6220;53.580;9.758;2024-02-15T04:56:40;26.23;;;19.30;;
12312;SDS011;6220;53.580;9.758;2024-02-15T04:59:06;26.93;;;19.03;;
12312;SDS011;6220;53.580;9.758;2024-02-15T05:01:54;25.40;;;19.10;;
12312;SDS011;6220;53.580;9.758;2024-02-15T05:04:21;27.93;;;19.67;;
12312;SDS011;6220;53.580;9.758;2024-02-15T05:06:49;24.60;;;19.57;;
12312;SDS011;6220;53.580;9.758;2024-02-15T05:09:14;26.23;;;19.93;;
12312;SDS011;6220;53.580;9.758;2024-02-15T05:11:43;27.27;;;20.03;;
12312;SDS011;6220;53.580;9.758;2024-02-15T05:14:13;27.10;;;19.60;;
12312;SDS011;6220;53.580;9.758;2024-02-15T05:16:46;31.27;;;20.37;;
12312;SDS011;6220;53.580;9.758;2024-02-15T05:19:16;25.70;;;19.10;;
12312;SDS011;6220;53.580;9.758;2024-02-15T05:21:42;25.20;;;18.77;;
12312;SDS011;6220;53.580;9.758;2024-02-15T05:24:12;28.70;;;21.00;;
12312;SDS011;6220;53.580;9.758;2024-02-15T05:26:41;27.67;;;19.97;;
12312;SDS011;6220;53.580;9.758;2024-02-15T05:29:14;26.30;;;19.23;;
12312;SDS011;6220;53.580;9.758;2024-02-15T05:31:41;25.67;;;18.90;;
12312;SDS011;6220;53.580;9.758;2024-02-15T05:34:10;26.10;;;18.37;;
12312;SDS011;6220;53.580;9.758;2024-02-15T05:36:39;26.40;;;19.23;;
12312;SDS011;6220;53.580;9.758;2024-02-15T05:39:05;28.67;;;20.97;;
12312;SDS011;6220;53.580;9.758;2024-02-15T05:41:31;29.23;;;20.83;;
12312;SDS011;6220;53.580;9.758;2024-02-15T05:43:58;24.63;;;18.83;;
12312;SDS011;6220;53.580;9.758;2024-02-15T05:46:25;27.17;;;19.90;;
12312;SDS011;6220;53.580;9.758;2024-02-15T05:48:53;26.73;;;19.73;;
12312;SDS011;6220;53.580;9.758;2024-02-15T05:51:19;26.40;;;20.50;;
12312;SDS011;6220;53.580;9.758;2024-02-15T05:53:44;25.67;;;18.93;;
12312;SDS011;6220;53.580;9.758;2024-02-15T05:56:11;30.37;;;19.90;;
12312;SDS011;6220;53.580;9.758;2024-02-15T05:58:37;25.43;;;19.10;;
12312;SDS011;6220;53.580;9.758;2024-02-15T06:01:03;27.03;;;19.67;;
12312;SDS011;6220;53.580;9.758;2024-02-15T06:03:33;30.30;;;20.40;;
12312;SDS011;6220;53.580;9.758;2024-02-15T06:06:00;27.37;;;19.97;;
12312;SDS011;6220;53.580;9.758;2024-02-15T06:08:27;28.33;;;20.23;;
12312;SDS011;6220;53.580;9.758;2024-02-15T06:10:54;23.03;;;18.83;;
12312;SDS011;6220;53.580;9.758;2024-02-15T06:13:20;28.40;;;19.80;;
12312;SDS011;6220;53.580;9.758;2024-02-15T06:15:49;24.17;;;18.90;;
12312;SDS011;6220;53.580;9.758;2024-02-15T06:18:24;24.43;;;19.63;;
12312;SDS011;6220;53.580;9.758;2024-02-15T06:20:54;26.67;;;20.07;;
12312;SDS011;6220;53.580;9.758;2024-02-15T06:23:24;30.67;;;20.03;;
12312;SDS011;6220;53.580;9.758;2024-02-15T06:25:51;28.60;;;20.13;;
12312;SDS011;6220;53.580;9.758;2024-02-15T06:28:21;27.30;;;20.87;;
12312;SDS011;6220;53.580;9.758;2024-02-15T06:31:10;26.57;;;20.37;;
12312;SDS011;6220;53.580;9.758;2024-02-15T06:33:56;30.63;;;20.37;;
12312;SDS011;6220;53.580;9.758;2024-02-15T06:36:40;29.50;;;21.00;;
12312;SDS011;6220;53.580;9.758;2024-02-15T06:39:33;32.17;;;22.33;;
12312;SDS011;6220;53.580;9.758;2024-02-15T06:42:08;34.27;;;24.23;;
12312;SDS011;6220;53.580;9.758;2024-02-15T06:44:34;33.77;;;24.70;;
12312;SDS011;6220;53.580;9.758;2024-02-15T06:47:17;37.83;;;24.93;;
12312;SDS011;6220;53.580;9.758;2024-02-15T06:49:45;37.17;;;25.60;;
12312;SDS011;6220;53.580;9.758;2024-02-15T06:52:10;41.60;;;26.23;;
12312;SDS011;6220;53.580;9.758;2024-02-15T06:54:39;39.50;;;26.37;;
12312;SDS011;6220;53.580;9.758;2024-02-15T06:57:04;39.90;;;25.77;;
12312;SDS011;6220;53.580;9.758;2024-02-15T06:59:30;39.07;;;25.80;;
12312;SDS011;6220;53.580;9.758;2024-02-15T07:01:57;36.87;;;25.53;;
12312;SDS011;6220;53.580;9.758;2024-02-15T07:04:24;36.57;;;23.60;;
12312;SDS011;6220;53.580;9.758;2024-02-15T07:06:53;33.03;;;24.50;;
12312;SDS011;6220;53.580;9.758;2024-02-15T07:09:22;30.87;;;22.13;;
12312;SDS011;6220;53.580;9.758;2024-02-15T07:11:49;34.73;;;22.30;;
12312;SDS011;6220;53.580;9.758;2024-02-15T07:14:15;31.13;;;21.67;;
12312;SDS011;6220;53.580;9.758;2024-02-15T07:16:48;30.67;;;20.67;;
12312;SDS011;6220;53.580;9.758;2024-02-15T07:19:15;26.20;;;17.17;;
12312;SDS011;6220;53.580;9.758;2024-02-15T07:21:41;24.90;;;18.37;;
12312;SDS011;6220;53.580;9.758;2024-02-15T07:24:07;22.97;;;17.13;;
12312;SDS011;6220;53.580;9.758;2024-02-15T07:26:33;23.57;;;16.47;;
12312;SDS011;6220;53.580;9.758;2024-02-15T07:29:00;22.63;;;16.40;;
12312;SDS011;6220;53.580;9.758;2024-02-15T07:31:28;21.00;;;16.20;;
12312;SDS011;6220;53.580;9.758;2024-02-15T07:33:56;23.50;;;16.80;;
12312;SDS011;6220;53.580;9.758;2024-02-15T07:36:23;20.37;;;15.27;;
12312;SDS011;6220;53.580;9.758;2024-02-15T07:38:49;18.53;;;14.20;;
12312;SDS011;6220;53.580;9.758;2024-02-15T07:41:18;21.23;;;15.13;;
12312;SDS011;6220;53.580;9.758;2024-02-15T07:43:47;18.50;;;14.10;;
12312;SDS011;6220;53.580;9.758;2024-02-15T07:46:13;18.30;;;13.97;;
12312;SDS011;6220;53.580;9.758;2024-02-15T07:48:41;17.90;;;13.77;;
12312;SDS011;6220;53.580;9.758;2024-02-15T07:51:13;24.97;;;15.37;;
12312;SDS011;6220;53.580;9.758;2024-02-15T07:53:40;23.27;;;14.43;;
12312;SDS011;6220;53.580;9.758;2024-02-15T07:56:05;21.50;;;15.10;;
12312;SDS011;6220;53.580;9.758;2024-02-15T07:58:31;21.57;;;14.70;;
12312;SDS011;6220;53.580;9.758;2024-02-15T08:00:58;27.10;;;15.13;;
12312;SDS011;6220;53.580;9.758;2024-02-15T08:03:25;22.87;;;16.03;;
12312;SDS011;6220;53.580;9.758;2024-02-15T08:05:51;23.07;;;16.17;;
12312;SDS011;6220;53.580;9.758;2024-02-15T08:08:17;22.33;;;17.03;;
12312;SDS011;6220;53.580;9.758;2024-02-15T08:10:44;25.43;;;17.37;;
12312;SDS011;6220;53.580;9.758;2024-02-15T08:13:11;25.17;;;18.93;;
12312;SDS011;6220;53.580;9.758;2024-02-15T08:15:36;30.40;;;20.47;;
12312;SDS011;6220;53.580;9.758;2024-02-15T08:18:01;28.13;;;19.37;;
12312;SDS011;6220;53.580;9.758;2024-02-15T08:20:31;29.17;;;19.83;;
12312;SDS011;6220;53.580;9.758;2024-02-15T08:22:58;30.47;;;20.70;;
12312;SDS011;6220;53.580;9.758;2024-02-15T08:25:24;30.17;;;20.27;;
12312;SDS011;6220;53.580;9.758;2024-02-15T08:27:50;27.23;;;20.40;;
12312;SDS011;6220;53.580;9.758;2024-02-15T08:30:16;26.73;;;19.97;;
12312;SDS011;6220;53.580;9.758;2024-02-15T08:32:42;29.10;;;21.60;;
12312;SDS011;6220;53.580;9.758;2024-02-15T08:35:08;30.33;;;20.43;;
12312;SDS011;6220;53.580;9.758;2024-02-15T08:37:35;34.40;;;21.53;;
12312;SDS011;6220;53.580;9.758;2024-02-15T08:40:03;28.23;;;19.83;;
12312;SDS011;6220;53.580;9.758;2024-02-15T08:42:38;32.60;;;20.40;;
12312;SDS011;6220;53.580;9.758;2024-02-15T08:45:04;30.23;;;20.00;;
12312;SDS011;6220;53.580;9.758;2024-02-15T08:47:30;26.40;;;18.63;;
12312;SDS011;6220;53.580;9.758;2024-02-15T08:49:55;27.93;;;18.37;;
12312;SDS011;6220;53.580;9.758;2024-02-15T08:52:22;26.53;;;17.77;;
12312;SDS011;6220;53.580;9.758;2024-02-15T08:54:51;25.03;;;17.80;;
12312;SDS011;6220;53.580;9.758;2024-02-15T08:57:17;28.90;;;18.67;;
12312;SDS011;6220;53.580;9.758;2024-02-15T08:59:44;26.00;;;17.83;;
12312;SDS011;6220;53.580;9.758;2024-02-15T09:02:09;21.87;;;16.07;;
12312;SDS011;6220;53.580;9.758;2024-02-15T09:04:34;21.53;;;16.33;;
12312;SDS011;6220;53.580;9.758;2024-02-15T09:07:00;20.93;;;15.70;;
12312;SDS011;6220;53.580;9.758;2024-02-15T09:09:29;21.97;;;16.13;;
12312;SDS011;6220;53.580;9.758;2024-02-15T09:11:56;22.10;;;16.47;;
12312;SDS011;6220;53.580;9.758;2024-02-15T09:14:21;21.17;;;14.60;;
12312;SDS011;6220;53.580;9.758;2024-02-15T09:16:47;20.97;;;15.37;;
12312;SDS011;6220;53.580;9.758;2024-02-15T09:19:12;22.77;;;14.90;;
12312;SDS011;6220;53.580;9.758;2024-02-15T09:21:39;21.57;;;15.70;;
12312;SDS011;6220;53.580;9.758;2024-02-15T09:24:05;19.10;;;14.70;;
12312;SDS011;6220;53.580;9.758;2024-02-15T09:26:31;19.13;;;14.47;;
12312;SDS011;6220;53.580;9.758;2024-02-15T09:28:57;17.97;;;13.13;;
12312;SDS011;6220;53.580;9.758;2024-02-15T09:31:22;18.77;;;14.40;;
12312;SDS011;6220;53.580;9.758;2024-02-15T09:33:49;21.60;;;14.97;;
12312;SDS011;6220;53.580;9.758;2024-02-15T09:36:15;17.37;;;14.10;;
12312;SDS011;6220;53.580;9.758;2024-02-15T09:38:41;17.87;;;13.90;;
12312;SDS011;6220;53.580;9.758;2024-02-15T09:41:08;17.97;;;14.47;;
12312;SDS011;6220;53.580;9.758;2024-02-15T09:43:34;20.50;;;14.73;;
12312;SDS011;6220;53.580;9.758;2024-02-15T09:46:00;18.37;;;14.67;;
12312;SDS011;6220;53.580;9.758;2024-02-15T09:48:29;18.73;;;15.10;;
12312;SDS011;6220;53.580;9.758;2024-02-15T09:50:55;20.27;;;15.63;;
12312;SDS011;6220;53.580;9.758;2024-02-15T09:53:21;18.30;;;15.80;;
12312;SDS011;6220;53.580;9.758;2024-02-15T09:55:56;19.70;;;15.90;;
12312;SDS011;6220;53.580;9.758;2024-02-15T09:58:29;18.13;;;15.67;;
12312;SDS011;6220;53.580;9.758;2024-02-15T10:00:58;21.87;;;16.47;;
12312;SDS011;6220;53.580;9.758;2024-02-15T10:03:25;21.70;;;16.40;;
12312;SDS011;6220;53.580;9.758;2024-02-15T10:05:53;20.90;;;15.90;;
12312;SDS011;6220;53.580;9.758;2024-02-15T10:08:20;25.20;;;17.13;;
12312;SDS011;6220;53.580;9.758;2024-02-15T10:11:09;26.00;;;17.27;;
12312;SDS011;6220;53.580;9.758;2024-02-15T10:13:36;19.57;;;17.37;;
12312;SDS011;6220;53.580;9.758;2024-02-15T10:16:15;21.33;;;17.50;;
12312;SDS011;6220;53.580;9.758;2024-02-15T10:18:47;26.27;;;18.13;;
12312;SDS011;6220;53.580;9.758;2024-02-15T10:21:27;21.57;;;17.30;;
12312;SDS011;6220;53.580;9.758;2024-02-15T10:24:07;26.50;;;19.20;;
12312;SDS011;6220;53.580;9.758;2024-02-15T10:26:34;22.37;;;18.27;;
12312;SDS011;6220;53.580;9.758;2024-02-15T10:29:09;24.70;;;17.83;;
12312;SDS011;6220;53.580;9.758;2024-02-15T10:31:37;24.13;;;18.63;;
12312;SDS011;6220;53.580;9.758;2024-02-15T10:34:04;21.13;;;17.87;;
12312;SDS011;6220;53.580;9.758;2024-02-15T10:36:30;28.37;;;19.97;;
12312;SDS011;6220;53.580;9.758;2024-02-15T10:41:51;27.07;;;18.57;;
12312;SDS011;6220;53.580;9.758;2024-02-15T10:46:44;29.77;;;19.30;;
12312;SDS011;6220;53.580;9.758;2024-02-15T10:49:11;27.00;;;19.17;;
12312;SDS011;6220;53.580;9.758;2024-02-15T10:51:38;27.23;;;19.00;;
12312;SDS011;6220;53.580;9.758;2024-02-15T10:54:07;27.17;;;19.87;;
12312;SDS011;6220;53.580;9.758;2024-02-15T10:56:37;28.20;;;20.23;;
12312;SDS011;6220;53.580;9.758;2024-02-15T10:59:11;27.50;;;20.43;;
12312;SDS011;6220;53.580;9.758;2024-02-15T11:01:47;27.40;;;20.97;;
12312;SDS011;6220;53.580;9.758;2024-02-15T11:04:15;25.20;;;20.10;;
12312;SDS011;6220;53.580;9.758;2024-02-15T11:06:46;24.70;;;20.53;;
12312;SDS011;6220;53.580;9.758;2024-02-15T11:09:17;26.40;;;20.47;;
12312;SDS011;6220;53.580;9.758;2024-02-15T11:11:45;25.60;;;20.80;;
12312;SDS011;6220;53.580;9.758;2024-02-15T11:16:54;26.07;;;21.63;;
12312;SDS011;6220;53.580;9.758;2024-02-15T11:22:01;28.57;;;22.47;;
12312;SDS011;6220;53.580;9.758;2024-02-15T11:24:30;28.40;;;22.77;;
12312;SDS011;6220;53.580;9.758;2024-02-15T11:27:04;30.27;;;23.57;;
12312;SDS011;6220;53.580;9.758;2024-02-15T11:35:09;33.27;;;24.00;;
12312;SDS011;6220;53.580;9.758;2024-02-15T11:40:22;30.33;;;25.40;;
12312;SDS011;6220;53.580;9.758;2024-02-15T11:43:06;35.50;;;25.43;;
12312;SDS011;6220;53.580;9.758;2024-02-15T11:45:32;32.93;;;26.10;;
12312;SDS011;6220;53.580;9.758;2024-02-15T11:48:08;36.50;;;26.73;;
12312;SDS011;6220;53.580;9.758;2024-02-15T11:50:38;33.80;;;26.37;;
12312;SDS011;6220;53.580;9.758;2024-02-15T11:53:07;29.93;;;26.20;;
12312;SDS011;6220;53.580;9.758;2024-02-15T11:55:39;33.60;;;27.23;;
12312;SDS011;6220;53.580;9.758;2024-02-15T11:58:06;35.73;;;27.13;;
12312;SDS011;6220;53.580;9.758;2024-02-15T12:00:35;32.13;;;26.10;;
12312;SDS011;6220;53.580;9.758;2024-02-15T12:03:20;32.63;;;25.63;;
12312;SDS011;6220;53.580;9.758;2024-02-15T12:06:04;31.40;;;25.67;;
12312;SDS011;6220;53.580;9.758;2024-02-15T12:08:48;33.37;;;24.90;;
12312;SDS011;6220;53.580;9.758;2024-02-15T12:11:33;30.07;;;24.10;;
12312;SDS011;6220;53.580;9.758;2024-02-15T12:14:17;29.10;;;23.93;;
12312;SDS011;6220;53.580;9.758;2024-02-15T12:17:05;27.77;;;23.17;;
12312;SDS011;6220;53.580;9.758;2024-02-15T12:19:53;27.77;;;23.03;;
12312;SDS011;6220;53.580;9.758;2024-02-15T12:22:21;26.93;;;21.50;;
12312;SDS011;6220;53.580;9.758;2024-02-15T12:24:54;26.23;;;21.63;;
12312;SDS011;6220;53.580;9.758;2024-02-15T12:27:20;26.27;;;22.53;;
12312;SDS011;6220;53.580;9.758;2024-02-15T12:29:51;35.10;;;23.17;;
12312;SDS011;6220;53.580;9.758;2024-02-15T12:32:21;27.93;;;21.80;;
12312;SDS011;6220;53.580;9.758;2024-02-15T12:34:50;25.03;;;21.07;;
12312;SDS011;6220;53.580;9.758;2024-02-15T12:37:22;23.93;;;19.83;;
12312;SDS011;6220;53.580;9.758;2024-02-15T12:39:48;21.17;;;18.63;;
12312;SDS011;6220;53.580;9.758;2024-02-15T12:42:15;23.00;;;19.20;;
12312;SDS011;6220;53.580;9.758;2024-02-15T12:44:45;23.63;;;19.70;;
12312;SDS011;6220;53.580;9.758;2024-02-15T12:47:20;20.23;;;18.13;;
12312;SDS011;6220;53.580;9.758;2024-02-15T12:49:49;20.83;;;18.00;;
12312;SDS011;6220;53.580;9.758;2024-02-15T12:55:07;18.13;;;15.80;;
12312;SDS011;6220;53.580;9.758;2024-02-15T12:57:53;16.53;;;14.60;;
12312;SDS011;6220;53.580;9.758;2024-02-15T13:00:21;17.00;;;14.90;;
12312;SDS011;6220;53.580;9.758;2024-02-15T13:02:53;16.53;;;14.87;;
12312;SDS011;6220;53.580;9.758;2024-02-15T13:05:18;16.57;;;14.37;;
12312;SDS011;6220;53.580;9.758;2024-02-15T13:07:45;16.33;;;13.60;;
12312;SDS011;6220;53.580;9.758;2024-02-15T13:10:11;16.07;;;12.57;;
12312;SDS011;6220;53.580;9.758;2024-02-15T13:12:36;16.17;;;12.50;;
12312;SDS011;6220;53.580;9.758;2024-02-15T13:15:03;15.00;;;13.40;;
12312;SDS011;6220;53.580;9.758;2024-02-15T13:17:30;16.67;;;12.57;;
12312;SDS011;6220;53.580;9.758;2024-02-15T13:19:56;17.00;;;11.87;;
12312;SDS011;6220;53.580;9.758;2024-02-15T13:22:28;15.83;;;12.43;;
12312;SDS011;6220;53.580;9.758;2024-02-15T13:24:54;14.47;;;12.20;;
12312;SDS011;6220;53.580;9.758;2024-02-15T13:27:20;12.93;;;11.40;;
12312;SDS011;6220;53.580;9.758;2024-02-15T13:29:46;14.93;;;11.77;;
12312;SDS011;6220;53.580;9.758;2024-02-15T13:32:12;12.57;;;11.27;;
12312;SDS011;6220;53.580;9.758;2024-02-15T13:34:39;12.43;;;11.13;;
12312;SDS011;6220;53.580;9.758;2024-02-15T13:37:05;14.07;;;10.67;;
12312;SDS011;6220;53.580;9.758;2024-02-15T13:39:30;14.43;;;11.37;;
12312;SDS011;6220;53.580;9.758;2024-02-15T13:42:01;13.07;;;11.70;;
12312;SDS011;6220;53.580;9.758;2024-02-15T13:44:27;16.40;;;12.07;;
12312;SDS011;6220;53.580;9.758;2024-02-15T13:46:52;15.30;;;12.83;;
12312;SDS011;6220;53.580;9.758;2024-02-15T13:49:20;14.27;;;12.03;;
12312;SDS011;6220;53.580;9.758;2024-02-15T13:51:46;13.90;;;12.40;;
12312;SDS011;6220;53.580;9.758;2024-02-15T13:54:11;16.23;;;11.60;;
12312;SDS011;6220;53.580;9.758;2024-02-15T13:56:37;14.53;;;12.97;;
12312;SDS011;6220;53.580;9.758;2024-02-15T13:59:04;15.43;;;12.43;;
12312;SDS011;6220;53.580;9.758;2024-02-15T14:01:29;14.93;;;12.93;;
12312;SDS011;6220;53.580;9.758;2024-02-15T14:03:55;15.13;;;12.67;;
12312;SDS011;6220;53.580;9.758;2024-02-15T14:06:20;14.17;;;12.57;;
12312;SDS011;6220;53.580;9.758;2024-02-15T14:08:46;18.13;;;13.33;;
12312;SDS011;6220;53.580;9.758;2024-02-15T14:11:12;15.53;;;13.43;;
12312;SDS011;6220;53.580;9.758;2024-02-15T14:13:37;17.13;;;13.67;;
12312;SDS011;6220;53.580;9.758;2024-02-15T14:16:02;14.13;;;12.70;;
12312;SDS011;6220;53.580;9.758;2024-02-15T14:18:28;15.67;;;12.00;;
12312;SDS011;6220;53.580;9.758;2024-02-15T14:20:54;15.00;;;12.20;;
12312;SDS011;6220;53.580;9.758;2024-02-15T14:23:19;14.47;;;12.70;;
12312;SDS011;6220;53.580;9.758;2024-02-15T14:25:45;17.37;;;12.70;;
12312;SDS011;6220;53.580;9.758;2024-02-15T14:28:10;15.07;;;13.23;;
12312;SDS011;6220;53.580;9.758;2024-02-15T14:30:36;15.13;;;12.27;;
12312;SDS011;6220;53.580;9.758;2024-02-15T14:33:20;13.27;;;11.97;;
12312;SDS011;6220;53.580;9.758;2024-02-15T14:35:47;14.53;;;12.20;;
12312;SDS011;6220;53.580;9.758;2024-02-15T14:38:13;13.33;;;12.03;;
12312;SDS011;6220;53.580;9.758;2024-02-15T14:40:44;13.47;;;12.03;;
12312;SDS011;6220;53.580;9.758;2024-02-15T14:43:17;17.50;;;12.17;;
12312;SDS011;6220;53.580;9.758;2024-02-15T14:45:45;13.73;;;11.30;;
12312;SDS011;6220;53.580;9.758;2024-02-15T14:48:12;13.47;;;11.67;;
12312;SDS011;6220;53.580;9.758;2024-02-15T14:50:38;12.80;;;11.47;;
12312;SDS011;6220;53.580;9.758;2024-02-15T14:53:04;13.87;;;11.23;;
12312;SDS011;6220;53.580;9.758;2024-02-15T14:55:30;12.77;;;11.13;;
12312;SDS011;6220;53.580;9.758;2024-02-15T14:57:56;11.80;;;10.60;;
12312;SDS011;6220;53.580;9.758;2024-02-15T15:00:22;12.37;;;10.87;;
12312;SDS011;6220;53.580;9.758;2024-02-15T15:02:49;11.33;;;10.10;;